Time;durP1;ratioP1;P1;durP2;ratioP2;P2;SDS_P1;SDS_P2;PMS_P1;PMS_P2;Temp;Humidity;BMP_temperature;BMP_pressure;BME280_temperature;BME280_humidity;BME280_pressure;Samples;Min_cycle;Max_cycle;Signal;HPM_P1;HPM_P2
2022/11/17 00:01:20;;;;;;;;;;;;;;;18.72;65.67;99594.31;7400338;19;1981;-41
2022/11/17 00:03:48;;;;;;;;;;;;;;;18.72;65.85;99588.09;7401345;19;1831;-40
2022/11/17 00:06:19;;;;;;;;;;;;;;;18.79;65.63;99591.81;7399816;19;1445;-41
2022/11/17 00:08:50;;;;;;;;;;;;;;;18.78;65.55;99580.28;7400949;19;1889;-41
2022/11/17 00:11:18;;;;;;;;;;;;;;;18.75;65.68;99585.13;7398385;19;1847;-41
2022/11/17 00:16:27;;;;;;;;;;;;;;;18.79;65.30;99570.41;7400670;19;1957;-41
2022/11/17 00:21:36;;;;;;;;;;;;;;;18.74;65.41;99580.75;7400615;19;1693;-41
2022/11/17 00:24:07;;;;;;;;;;;;;;;18.78;64.97;99574.06;7401047;19;1779;-40
2022/11/17 00:27:00;;;;;;;;;;;;;;;18.74;65.00;99560.19;7400239;19;1842;-41
2022/11/17 00:29:24;;;;;;;;;;;;;;;18.76;65.27;99565.34;7400585;19;1702;-41
2022/11/17 00:34:33;;;;;;;;;;;;;;;18.74;64.95;99557.50;7401816;19;957;-42
2022/11/17 00:37:01;;;;;;;;;;;;;;;18.76;64.68;99554.63;7398765;19;1858;-41
2022/11/17 00:39:32;;;;;;;;;;;;;;;18.73;64.83;99552.31;7399472;19;1956;-41
2022/11/17 00:42:00;;;;;;;;;;;;;;;18.68;65.02;99561.66;7399399;19;1897;-41
2022/11/17 00:44:28;;;;;;;;;;;;;;;18.70;64.75;99545.41;7399900;19;1588;-43
2022/11/17 00:46:57;;;;;;;;;;;;;;;18.68;64.91;99540.25;7400956;19;1669;-41
2022/11/17 00:49:26;;;;;;;;;;;;;;;18.69;64.93;99555.28;7400525;19;1982;-40
2022/11/17 00:51:55;;;;;;;;;;;;;;;18.68;64.68;99564.34;7397669;19;1893;-41
2022/11/17 00:54:23;;;;;;;;;;;;;;;18.68;64.61;99542.94;7399392;19;1656;-42
2022/11/17 00:56:54;;;;;;;;;;;;;;;18.70;64.64;99545.41;7399232;19;1640;-41
2022/11/17 00:59:22;;;;;;;;;;;;;;;18.72;64.58;99547.94;7400621;19;1204;-41
2022/11/17 01:01:50;;;;;;;;;;;;;;;18.71;64.24;99541.75;7394749;19;1861;-41
2022/11/17 01:04:19;;;;;;;;;;;;;;;18.69;64.28;99527.69;7398157;19;2037;-42
2022/11/17 01:06:48;;;;;;;;;;;;;;;18.68;64.55;99523.31;7399909;19;1886;-42
2022/11/17 01:09:17;;;;;;;;;;;;;;;18.71;64.19;99531.03;7407204;19;1707;-41
2022/11/17 01:11:45;;;;;;;;;;;;;;;18.69;64.16;99533.03;7403752;19;1850;-42
2022/11/17 01:14:17;;;;;;;;;;;;;;;18.67;64.26;99521.66;7406786;19;1017;-41
2022/11/17 01:16:46;;;;;;;;;;;;;;;18.67;64.11;99517.13;7406628;19;1915;-41
2022/11/17 01:19:15;;;;;;;;;;;;;;;18.62;64.08;99519.47;7405702;19;1643;-41
2022/11/17 01:21:43;;;;;;;;;;;;;;;18.65;64.07;99516.47;7405928;19;1967;-42
2022/11/17 01:24:13;;;;;;;;;;;;;;;18.71;63.99;99508.78;7406464;19;1834;-42
2022/11/17 01:26:42;;;;;;;;;;;;;;;18.65;64.18;99489.69;7405360;19;1638;-41
2022/11/17 01:29:12;;;;;;;;;;;;;;;18.71;63.84;99498.06;7406950;19;1829;-41
2022/11/17 01:31:44;;;;;;;;;;;;;;;18.69;64.09;99506.25;7403893;19;2052;-41
2022/11/17 01:34:13;;;;;;;;;;;;;;;18.75;63.89;99502.09;7405989;19;1859;-42
2022/11/17 01:39:23;;;;;;;;;;;;;;;18.64;63.80;99489.84;7402651;19;2412;-42
2022/11/17 01:41:51;;;;;;;;;;;;;;;18.69;63.87;99499.06;7405619;19;1732;-41
2022/11/17 01:44:35;;;;;;;;;;;;;;;18.65;63.51;99500.41;7406476;19;1015;-41
2022/11/17 01:47:06;;;;;;;;;;;;;;;18.66;63.69;99475.31;7406154;19;1683;-42
2022/11/17 01:49:35;;;;;;;;;;;;;;;18.65;63.77;99484.34;7406912;19;962;-41
2022/11/17 01:52:05;;;;;;;;;;;;;;;18.67;63.46;99487.69;7403362;19;1853;-41
2022/11/17 01:54:35;;;;;;;;;;;;;;;18.67;63.58;99482.31;7405628;19;1964;-41
2022/11/17 01:57:07;;;;;;;;;;;;;;;18.73;63.20;99482.69;7404341;19;1902;-41
2022/11/17 01:59:36;;;;;;;;;;;;;;;18.67;63.52;99471.63;7405738;19;1768;-41
2022/11/17 02:02:07;;;;;;;;;;;;;;;18.76;63.42;99474.31;7404556;19;1537;-43
2022/11/17 02:04:36;;;;;;;;;;;;;;;19.41;62.43;99474.34;7405739;19;1037;-41
2022/11/17 02:07:09;;;;;;;;;;;;;;;20.52;59.94;99469.94;7404371;19;2098;-41
2022/11/17 02:09:39;;;;;;;;;;;;;;;21.32;58.04;99447.19;7404796;19;1901;-41
2022/11/17 02:12:10;;;;;;;;;;;;;;;21.54;57.42;99450.03;7402568;19;2205;-41
2022/11/17 02:14:38;;;;;;;;;;;;;;;20.64;59.28;99460.50;7400797;19;1879;-41
2022/11/17 02:17:10;;;;;;;;;;;;;;;20.25;60.82;99456.00;7405507;19;1799;-41
2022/11/17 02:19:39;;;;;;;;;;;;;;;20.45;60.43;99458.22;7404194;19;1024;-41
2022/11/17 02:22:22;;;;;;;;;;;;;;;20.79;59.74;99448.97;7404348;19;2052;-41
2022/11/17 02:25:10;;;;;;;;;;;;;;;21.29;58.52;99444.88;7405294;19;1896;-41
2022/11/17 02:28:03;;;;;;;;;;;;;;;21.52;57.98;99447.53;7404365;19;1714;-41
2022/11/17 02:30:36;;;;;;;;;;;;;;;21.41;58.33;99439.88;7400129;19;2456;-41
2022/11/17 02:33:07;;;;;;;;;;;;;;;21.25;58.54;99428.25;7402741;19;1989;-41
2022/11/17 02:35:41;;;;;;;;;;;;;;;21.19;58.88;99444.31;7401549;19;1822;-41
2022/11/17 02:38:17;;;;;;;;;;;;;;;21.19;58.99;99428.19;7403561;19;1418;-42
2022/11/17 02:40:49;;;;;;;;;;;;;;;21.25;58.81;99430.97;7402459;19;1813;-42
2022/11/17 02:46:07;;;;;;;;;;;;;;;21.24;58.69;99423.06;7403320;19;1848;-42
2022/11/17 02:48:36;;;;;;;;;;;;;;;21.30;58.71;99433.09;7403062;19;1941;-41
2022/11/17 02:51:06;;;;;;;;;;;;;;;21.31;58.72;99429.41;7401924;19;1847;-41
2022/11/17 02:53:35;;;;;;;;;;;;;;;21.26;58.55;99431.78;7402201;19;1614;-41
2022/11/17 02:56:04;;;;;;;;;;;;;;;21.31;58.71;99413.25;7402019;19;1621;-41
2022/11/17 02:58:32;;;;;;;;;;;;;;;21.31;58.69;99407.03;7404476;19;1046;-41
2022/11/17 03:01:16;;;;;;;;;;;;;;;21.36;58.51;99400.09;7399045;19;1838;-63
2022/11/17 03:03:52;;;;;;;;;;;;;;;21.36;58.45;99405.47;7405535;19;1429;-65
2022/11/17 03:06:24;;;;;;;;;;;;;;;21.38;58.35;99402.59;7406765;19;1538;-66
2022/11/17 03:08:56;;;;;;;;;;;;;;;21.37;58.60;99396.38;7404706;19;1379;-65
2022/11/17 03:11:30;;;;;;;;;;;;;;;21.51;58.28;99423.53;7404935;19;1847;-66
2022/11/17 03:14:04;;;;;;;;;;;;;;;21.56;58.02;99410.34;7406255;19;1283;-66
2022/11/17 03:16:37;;;;;;;;;;;;;;;21.51;58.33;99402.81;7405836;19;1638;-66
2022/11/17 03:19:09;;;;;;;;;;;;;;;21.49;58.07;99394.13;7405411;19;1552;-66
2022/11/17 03:21:41;;;;;;;;;;;;;;;21.53;58.17;99395.41;7406328;19;1611;-66
2022/11/17 03:24:13;;;;;;;;;;;;;;;21.58;57.78;99394.84;7404673;19;1448;-65
2022/11/17 03:26:44;;;;;;;;;;;;;;;21.50;58.29;99384.19;7406031;19;1511;-66
2022/11/17 03:29:15;;;;;;;;;;;;;;;21.65;57.96;99387.72;7404833;19;1279;-66
2022/11/17 03:31:48;;;;;;;;;;;;;;;21.64;57.92;99372.56;7402200;19;1853;-66
2022/11/17 03:34:18;;;;;;;;;;;;;;;21.63;57.81;99368.22;7402273;19;1617;-65
2022/11/17 03:36:48;;;;;;;;;;;;;;;21.67;57.46;99372.22;7402332;19;1386;-66
2022/11/17 03:39:22;;;;;;;;;;;;;;;21.63;57.75;99357.47;7405774;19;1433;-66
2022/11/17 03:41:53;;;;;;;;;;;;;;;21.66;57.86;99362.47;7405286;19;1594;-66
2022/11/17 03:44:24;;;;;;;;;;;;;;;21.63;57.62;99350.22;7405617;19;1302;-66
2022/11/17 03:46:56;;;;;;;;;;;;;;;21.67;57.41;99347.16;7403919;19;1720;-66
2022/11/17 03:49:29;;;;;;;;;;;;;;;21.73;57.62;99357.19;7404175;19;1375;-66
2022/11/17 03:51:57;;;;;;;;;;;;;;;21.70;57.66;99341.41;7402889;19;1855;-66
2022/11/17 03:54:26;;;;;;;;;;;;;;;21.76;57.34;99348.72;7403809;19;1547;-66
2022/11/17 03:56:59;;;;;;;;;;;;;;;21.77;57.32;99342.34;7403401;19;1632;-65
2022/11/17 03:59:31;;;;;;;;;;;;;;;21.65;58.31;99344.66;7404648;19;1428;-66
2022/11/17 04:02:02;;;;;;;;;;;;;;;21.31;60.02;99345.19;7403962;19;1548;-66
2022/11/17 04:05:04;;;;;;;;;;;;;;;21.20;60.60;99324.97;7405015;19;1331;-66
2022/11/17 04:07:18;;;;;;;;;;;;;;;21.18;61.03;99348.53;7404603;19;1297;-66
2022/11/17 04:09:47;;;;;;;;;;;;;;;21.10;61.38;99356.69;7402389;19;1688;-66
2022/11/17 04:17:39;;;;;;;;;;;;;;;21.13;61.86;99329.41;7404647;19;1385;-66
2022/11/17 04:20:08;;;;;;;;;;;;;;;21.19;61.53;99336.78;7404167;19;1539;-66
2022/11/17 04:22:37;;;;;;;;;;;;;;;21.17;61.73;99345.00;7403931;19;1447;-66
2022/11/17 04:25:05;;;;;;;;;;;;;;;21.14;61.91;99348.06;7405038;19;1067;-66
2022/11/17 04:30:14;;;;;;;;;;;;;;;21.10;62.32;99344.06;7404977;19;1321;-66
2022/11/17 04:32:45;;;;;;;;;;;;;;;21.12;62.28;99333.13;7402152;19;1849;-66
2022/11/17 04:35:15;;;;;;;;;;;;;;;21.04;62.54;99334.88;7403869;19;1316;-66
2022/11/17 04:37:43;;;;;;;;;;;;;;;21.09;62.37;99336.19;7403770;19;1352;-66
2022/11/17 04:40:12;;;;;;;;;;;;;;;21.10;62.48;99330.63;7403030;19;1542;-66
2022/11/17 04:42:38;;;;;;;;;;;;;;;21.18;62.50;99332.41;7410143;19;1278;-66
2022/11/17 04:45:07;;;;;;;;;;;;;;;21.14;62.43;99331.94;7407330;19;1645;-66
2022/11/17 04:47:35;;;;;;;;;;;;;;;21.13;62.68;99329.41;7408398;19;1574;-66
2022/11/17 04:50:06;;;;;;;;;;;;;;;21.14;62.58;99329.25;7411113;19;1315;-66
2022/11/17 04:52:35;;;;;;;;;;;;;;;21.09;62.75;99339.72;7406822;19;1846;-66
2022/11/17 04:55:03;;;;;;;;;;;;;;;21.12;62.71;99317.00;7410929;19;1067;-66
2022/11/17 04:57:31;;;;;;;;;;;;;;;21.05;62.97;99314.25;7411358;19;1472;-66
2022/11/17 05:00:00;;;;;;;;;;;;;;;21.00;63.17;99309.41;7407002;19;1708;-66
2022/11/17 05:02:28;;;;;;;;;;;;;;;21.15;62.74;99308.56;7407855;19;1538;-66
2022/11/17 05:04:59;;;;;;;;;;;;;;;21.13;62.79;99291.78;7410533;19;1637;-66
2022/11/17 05:07:30;;;;;;;;;;;;;;;21.16;62.95;99302.19;7410947;19;1242;-66
2022/11/17 05:09:58;;;;;;;;;;;;;;;21.28;62.35;99306.06;7406968;19;1414;-66
2022/11/17 05:15:08;;;;;;;;;;;;;;;21.17;63.07;99299.31;7407091;19;1673;-66
2022/11/17 05:17:34;;;;;;;;;;;;;;;21.17;63.17;99303.84;7409267;19;1380;-66
2022/11/17 05:20:02;;;;;;;;;;;;;;;21.16;63.15;99300.31;7407198;19;1407;-66
2022/11/17 05:25:13;;;;;;;;;;;;;;;21.25;62.75;99307.28;7410061;19;1436;-66
2022/11/17 05:27:42;;;;;;;;;;;;;;;21.25;62.84;99293.00;7409020;19;1377;-66
2022/11/17 05:30:11;;;;;;;;;;;;;;;21.30;62.61;99298.66;7404727;19;1744;-66
2022/11/17 05:32:39;;;;;;;;;;;;;;;21.31;62.85;99278.81;7405249;19;1873;-66
2022/11/17 05:35:08;;;;;;;;;;;;;;;21.33;62.55;99282.16;7408074;19;1342;-66
2022/11/17 05:37:39;;;;;;;;;;;;;;;21.25;62.97;99279.56;7407781;19;1282;-66
2022/11/17 05:40:09;;;;;;;;;;;;;;;21.28;62.96;99279.19;7407869;19;1267;-66
2022/11/17 05:42:37;;;;;;;;;;;;;;;21.29;63.03;99293.44;7408978;19;951;-66
2022/11/17 05:45:05;;;;;;;;;;;;;;;21.27;63.09;99285.59;7404516;19;1557;-66
2022/11/17 05:47:34;;;;;;;;;;;;;;;21.22;63.05;99290.69;7407066;19;1377;-66
2022/11/17 05:50:02;;;;;;;;;;;;;;;21.22;63.36;99294.19;7407601;19;1320;-66
2022/11/17 05:52:30;;;;;;;;;;;;;;;21.22;63.41;99294.19;7405011;19;1850;-66
2022/11/17 05:55:01;;;;;;;;;;;;;;;21.24;63.21;99286.78;7407314;19;1464;-66
2022/11/17 05:57:32;;;;;;;;;;;;;;;21.25;63.36;99269.63;7407636;19;1684;-66
2022/11/17 06:00:03;;;;;;;;;;;;;;;21.31;63.13;99286.88;7403993;19;1567;-66
2022/11/17 06:02:33;;;;;;;;;;;;;;;21.39;62.87;99280.56;7404963;19;1340;-66
2022/11/17 06:05:01;;;;;;;;;;;;;;;21.38;63.11;99279.72;7407781;19;1535;-66
2022/11/17 06:07:30;;;;;;;;;;;;;;;21.38;63.23;99285.09;7407510;19;1450;-66
2022/11/17 06:10:01;;;;;;;;;;;;;;;21.32;63.27;99282.34;7405637;19;1501;-67
2022/11/17 06:12:29;;;;;;;;;;;;;;;21.32;63.07;99290.41;7405632;19;1853;-66
2022/11/17 06:14:57;;;;;;;;;;;;;;;21.38;63.33;99298.53;7404292;19;1728;-66
2022/11/17 06:17:28;;;;;;;;;;;;;;;21.31;63.17;99270.75;7405806;19;1397;-66
2022/11/17 06:19:59;;;;;;;;;;;;;;;21.33;63.14;99270.53;7407619;19;1014;-67
2022/11/17 06:22:28;;;;;;;;;;;;;;;21.30;63.29;99293.28;7408553;19;1354;-66
2022/11/17 06:24:57;;;;;;;;;;;;;;;21.44;62.92;99295.13;7406427;19;1492;-66
2022/11/17 06:27:28;;;;;;;;;;;;;;;21.44;62.82;99253.97;7406140;19;1437;-66
2022/11/17 06:29:58;;;;;;;;;;;;;;;21.47;63.21;99272.44;7403090;19;1422;-66
2022/11/17 06:32:26;;;;;;;;;;;;;;;21.21;63.88;99272.91;7403023;19;1848;-69
2022/11/17 06:34:55;;;;;;;;;;;;;;;20.84;65.33;99280.00;7403466;19;1468;-68
2022/11/17 06:37:23;;;;;;;;;;;;;;;20.52;65.89;99279.28;7406611;19;1032;-68
2022/11/17 06:39:52;;;;;;;;;;;;;;;20.46;65.88;99282.69;7406193;19;1274;-63
2022/11/17 06:43:02;;;;;;;;;;;;;;;20.77;65.63;99276.38;7405615;19;1413;-65
2022/11/17 06:45:12;;;;;;;;;;;;;;;20.67;66.31;99282.00;7404471;19;1452;-67
2022/11/17 06:47:40;;;;;;;;;;;;;;;20.38;67.01;99274.72;7404634;19;1179;-65
2022/11/17 06:50:09;;;;;;;;;;;;;;;20.17;69.73;99276.19;7405060;19;1376;-64
2022/11/17 06:52:39;;;;;;;;;;;;;;;20.03;69.58;99263.56;7402474;19;1841;-74
2022/11/17 06:55:08;;;;;;;;;;;;;;;19.86;71.52;99278.94;7403783;19;1469;-64
2022/11/17 06:57:36;;;;;;;;;;;;;;;19.86;72.13;99273.59;7406921;19;1210;-65
2022/11/17 07:00:05;;;;;;;;;;;;;;;19.85;72.18;99278.09;7404440;19;1536;-61
2022/11/17 07:02:36;;;;;;;;;;;;;;;19.81;72.50;99287.50;7404471;19;1318;-68
2022/11/17 07:05:04;;;;;;;;;;;;;;;19.82;72.46;99281.16;7403418;19;1369;-67
2022/11/17 07:07:33;;;;;;;;;;;;;;;19.84;73.17;99276.44;7405026;19;1319;-64
2022/11/17 07:10:01;;;;;;;;;;;;;;;19.79;72.12;99278.81;7405638;19;1067;-73
2022/11/17 07:12:29;;;;;;;;;;;;;;;19.78;72.89;99266.41;7404197;19;1850;-69
2022/11/17 07:14:58;;;;;;;;;;;;;;;19.72;73.40;99258.25;7399442;19;1555;-64
2022/11/17 07:17:27;;;;;;;;;;;;;;;19.66;73.60;99262.44;7400940;19;1095;-67
2022/11/17 07:19:59;;;;;;;;;;;;;;;19.62;73.87;99264.63;7405430;19;1526;-71
2022/11/17 07:22:27;;;;;;;;;;;;;;;19.55;74.32;99263.66;7403352;19;1535;-69
2022/11/17 07:24:55;;;;;;;;;;;;;;;19.57;73.99;99268.84;7401098;19;1532;-66
2022/11/17 07:27:24;;;;;;;;;;;;;;;19.71;73.34;99270.81;7400144;19;1685;-72
2022/11/17 07:29:52;;;;;;;;;;;;;;;19.68;73.47;99281.88;7401773;19;1426;-68
2022/11/17 07:32:21;;;;;;;;;;;;;;;19.56;74.71;99251.94;7403618;19;1856;-67
2022/11/17 07:34:49;;;;;;;;;;;;;;;19.46;74.67;99260.19;7405122;19;1400;-70
2022/11/17 07:37:23;;;;;;;;;;;;;;;19.45;74.28;99255.00;7403232;19;1161;-62
2022/11/17 07:39:51;;;;;;;;;;;;;;;19.44;74.81;99270.25;7403898;19;1059;-62
2022/11/17 07:42:19;;;;;;;;;;;;;;;19.53;74.98;99270.22;7404019;19;1503;-67
2022/11/17 07:44:48;;;;;;;;;;;;;;;19.47;75.17;99259.16;7402052;19;1376;-62
2022/11/17 07:47:16;;;;;;;;;;;;;;;19.39;74.46;99277.16;7403069;19;1163;-61
2022/11/17 07:49:44;;;;;;;;;;;;;;;19.35;74.67;99289.22;7405302;19;994;-61
2022/11/17 07:52:12;;;;;;;;;;;;;;;19.51;74.04;99274.91;7401415;19;1866;-61
2022/11/17 07:54:43;;;;;;;;;;;;;;;19.52;73.98;99271.22;7402692;19;1508;-71
2022/11/17 07:57:12;;;;;;;;;;;;;;;19.48;74.80;99284.97;7403274;19;1660;-65
2022/11/17 07:59:40;;;;;;;;;;;;;;;19.48;75.18;99282.31;7396987;19;1399;-64
2022/11/17 08:02:10;;;;;;;;;;;;;;;19.42;74.68;99296.41;7392084;19;1332;-67
2022/11/17 08:04:38;;;;;;;;;;;;;;;19.37;74.65;99309.47;7394834;19;1149;-62
2022/11/17 08:07:07;;;;;;;;;;;;;;;19.28;74.81;99308.69;7402102;19;1383;-65
2022/11/17 08:09:35;;;;;;;;;;;;;;;19.36;75.47;99315.00;7401929;19;1684;-64
2022/11/17 08:12:07;;;;;;;;;;;;;;;19.35;74.94;99308.81;7402578;19;1872;-65
2022/11/17 08:14:36;;;;;;;;;;;;;;;19.44;74.95;99323.03;7403049;19;1239;-66
2022/11/17 08:17:04;;;;;;;;;;;;;;;19.42;75.96;99306.31;7407547;19;1000;-62
2022/11/17 08:19:32;;;;;;;;;;;;;;;19.44;75.70;99317.69;7409732;19;1203;-63
2022/11/17 08:22:00;;;;;;;;;;;;;;;19.37;76.02;99316.69;7408941;19;1427;-67
2022/11/17 08:24:29;;;;;;;;;;;;;;;19.31;75.83;99323.56;7405821;19;1109;-65
2022/11/17 08:26:57;;;;;;;;;;;;;;;19.34;75.51;99338.47;7408436;19;1188;-64
2022/11/17 08:29:28;;;;;;;;;;;;;;;19.37;75.95;99338.97;7404379;19;1231;-62
2022/11/17 08:31:56;;;;;;;;;;;;;;;19.33;75.65;99332.28;7394360;19;1179;-64
2022/11/17 08:34:25;;;;;;;;;;;;;;;19.36;75.52;99341.81;7406267;19;1838;-63
2022/11/17 08:36:53;;;;;;;;;;;;;;;19.26;75.92;99334.00;7408063;19;1209;-62
2022/11/17 08:39:21;;;;;;;;;;;;;;;19.28;75.58;99356.09;7409584;19;1298;-62
2022/11/17 08:41:50;;;;;;;;;;;;;;;19.24;76.02;99342.19;7409513;19;1349;-62
2022/11/17 08:44:18;;;;;;;;;;;;;;;19.28;75.78;99340.03;7409294;19;1197;-63
2022/11/17 08:46:49;;;;;;;;;;;;;;;19.41;75.38;99350.19;7408524;19;1684;-62
2022/11/17 08:49:17;;;;;;;;;;;;;;;19.46;74.91;99337.94;7408458;19;1458;-62
2022/11/17 08:51:45;;;;;;;;;;;;;;;19.39;75.67;99357.56;7406374;19;1510;-70
2022/11/17 08:54:14;;;;;;;;;;;;;;;19.24;75.06;99336.84;7405470;19;1864;-70
2022/11/17 08:56:43;;;;;;;;;;;;;;;19.24;75.43;99358.28;7406769;19;1511;-66
2022/11/17 08:59:13;;;;;;;;;;;;;;;19.20;75.67;99354.28;7409008;19;1063;-64
2022/11/17 09:01:41;;;;;;;;;;;;;;;19.22;75.64;99354.09;7406101;19;1621;-67
2022/11/17 09:04:12;;;;;;;;;;;;;;;19.22;76.09;99343.38;7407252;19;1665;-64
2022/11/17 09:06:41;;;;;;;;;;;;;;;19.30;76.85;99342.50;7408113;19;1646;-66
2022/11/17 09:09:09;;;;;;;;;;;;;;;19.33;75.91;99326.91;7408070;19;1341;-71
2022/11/17 09:11:37;;;;;;;;;;;;;;;19.55;75.13;99332.53;7406543;19;1319;-63
2022/11/17 09:14:07;;;;;;;;;;;;;;;19.46;75.65;99337.94;7407437;19;1867;-65
2022/11/17 09:16:36;;;;;;;;;;;;;;;19.37;75.77;99333.59;7405290;19;1619;-65
2022/11/17 09:19:05;;;;;;;;;;;;;;;19.31;76.23;99325.44;7406015;19;1343;-66
2022/11/17 09:21:36;;;;;;;;;;;;;;;19.23;76.64;99323.59;7404599;19;1505;-66
2022/11/17 09:24:05;;;;;;;;;;;;;;;19.16;76.77;99314.56;7407935;19;1350;-66
2022/11/17 09:26:33;;;;;;;;;;;;;;;19.15;76.63;99323.63;7338309;19;13742;-68
2022/11/17 09:29:02;;;;;;;;;;;;;;;19.17;77.01;99322.44;7403504;19;1394;-65
2022/11/17 09:31:31;;;;;;;;;;;;;;;19.17;77.04;99319.75;7403924;19;1489;-65
2022/11/17 09:33:59;;;;;;;;;;;;;;;19.20;76.52;99321.25;7403379;19;1852;-66
2022/11/17 09:36:27;;;;;;;;;;;;;;;19.22;77.15;99313.91;7405633;19;1403;-66
2022/11/17 09:38:58;;;;;;;;;;;;;;;19.31;77.04;99312.03;7405017;19;2024;-68
2022/11/17 09:41:28;;;;;;;;;;;;;;;19.44;76.48;99318.50;7406317;19;1313;-64
2022/11/17 09:44:01;;;;;;;;;;;;;;;19.48;77.09;99305.59;7406694;19;1165;-68
2022/11/17 09:46:33;;;;;;;;;;;;;;;19.39;77.63;99310.13;7404953;19;1298;-67
2022/11/17 09:49:08;;;;;;;;;;;;;;;19.37;77.79;99312.16;7405000;19;1285;-68
2022/11/17 09:51:38;;;;;;;;;;;;;;;19.33;78.06;99302.78;7401537;19;1426;-67
2022/11/17 09:54:15;;;;;;;;;;;;;;;19.28;78.15;99302.50;7403343;19;1861;-67
2022/11/17 09:56:43;;;;;;;;;;;;;;;19.17;78.34;99290.28;7404872;19;1402;-67
2022/11/17 09:59:14;;;;;;;;;;;;;;;19.15;78.57;99292.31;7407204;19;1417;-66
2022/11/17 10:01:42;;;;;;;;;;;;;;;19.16;78.54;99293.13;7404671;19;1675;-64
2022/11/17 10:04:12;;;;;;;;;;;;;;;19.25;78.51;99297.47;7403769;19;1390;-63
2022/11/17 10:06:42;;;;;;;;;;;;;;;19.22;78.10;99297.84;7406115;19;1346;-62
2022/11/17 10:09:18;;;;;;;;;;;;;;;19.18;77.96;99309.88;7404348;19;1406;-64
2022/11/17 10:11:47;;;;;;;;;;;;;;;19.24;78.04;99306.53;7404351;19;1378;-65
2022/11/17 10:14:17;;;;;;;;;;;;;;;19.35;77.92;99306.13;7399289;19;1865;-65
2022/11/17 10:16:46;;;;;;;;;;;;;;;19.34;78.11;99298.25;7403106;19;1687;-63
2022/11/17 10:19:16;;;;;;;;;;;;;;;19.31;78.36;99302.13;7405084;19;1635;-63
2022/11/17 10:21:45;;;;;;;;;;;;;;;19.26;78.74;99299.16;7406618;19;1630;-63
2022/11/17 10:24:34;;;;;;;;;;;;;;;19.17;79.19;99284.09;7405654;19;1343;-63
2022/11/17 10:27:02;;;;;;;;;;;;;;;19.14;79.32;99295.16;7404844;19;1722;-63
2022/11/17 10:29:31;;;;;;;;;;;;;;;19.14;79.69;99297.81;7406783;19;1439;-63
2022/11/17 10:32:00;;;;;;;;;;;;;;;19.12;79.11;99297.16;7404596;19;1275;-63
2022/11/17 10:34:33;;;;;;;;;;;;;;;19.15;79.63;99291.47;7405108;19;1841;-63
2022/11/17 10:37:05;;;;;;;;;;;;;;;19.21;79.38;99293.47;7403615;19;1639;-67
2022/11/17 10:39:38;;;;;;;;;;;;;;;19.45;78.97;99277.28;7403773;19;1473;-68
2022/11/17 10:42:17;;;;;;;;;;;;;;;19.59;78.68;99299.84;7404769;19;1607;-67
2022/11/17 10:44:50;;;;;;;;;;;;;;;19.64;78.89;99315.41;7404162;19;1563;-69
2022/11/17 10:47:28;;;;;;;;;;;;;;;19.54;79.11;99306.75;7403094;19;1354;-69
2022/11/17 10:50:11;;;;;;;;;;;;;;;19.50;79.74;99321.50;7403319;19;1361;-66
2022/11/17 10:52:40;;;;;;;;;;;;;;;19.37;80.13;99314.84;7403105;19;1409;-67
2022/11/17 10:55:26;;;;;;;;;;;;;;;19.30;79.85;99319.25;7401012;19;1879;-64
2022/11/17 10:57:55;;;;;;;;;;;;;;;19.27;80.12;99311.53;7404748;19;1243;-66
2022/11/17 11:00:25;;;;;;;;;;;;;;;19.23;80.62;99304.84;7401587;19;1745;-71
2022/11/17 11:03:04;;;;;;;;;;;;;;;19.27;80.57;99315.03;7405290;19;1449;-72
2022/11/17 11:05:32;;;;;;;;;;;;;;;19.30;80.45;99324.59;7405103;19;1339;-71
2022/11/17 11:08:18;;;;;;;;;;;;;;;19.25;79.84;99322.41;7404376;19;1635;-70
2022/11/17 11:10:51;;;;;;;;;;;;;;;19.22;79.76;99325.47;7403304;19;1386;-72
2022/11/17 11:13:25;;;;;;;;;;;;;;;19.33;79.32;99326.91;7404098;19;1857;-73
2022/11/17 11:15:54;;;;;;;;;;;;;;;19.44;79.17;99331.91;7401514;19;1354;-74
2022/11/17 11:18:23;;;;;;;;;;;;;;;19.45;78.98;99330.91;7402905;19;1339;-74
2022/11/17 11:20:58;;;;;;;;;;;;;;;19.34;79.04;99327.75;7400537;19;1403;-73
2022/11/17 11:23:30;;;;;;;;;;;;;;;19.27;79.93;99344.53;7402658;19;1179;-75
2022/11/17 11:26:09;;;;;;;;;;;;;;;19.42;79.43;99330.44;7403273;19;1310;-71
2022/11/17 11:28:43;;;;;;;;;;;;;;;19.33;79.65;99332.28;7401173;19;1394;-64
2022/11/17 11:31:16;;;;;;;;;;;;;;;19.24;79.89;99334.16;7401696;19;1357;-64
2022/11/17 11:33:50;;;;;;;;;;;;;;;19.30;78.99;99347.88;7401634;19;1861;-63
2022/11/17 11:36:28;;;;;;;;;;;;;;;19.51;78.31;99340.09;7403492;19;1348;-72
2022/11/17 11:38:59;;;;;;;;;;;;;;;19.66;77.93;99340.22;7402902;19;1577;-63
2022/11/17 11:41:38;;;;;;;;;;;;;;;19.56;78.05;99331.56;7398630;19;1718;-62
2022/11/17 11:44:19;;;;;;;;;;;;;;;19.49;78.55;99334.06;7396487;19;1552;-63
2022/11/17 11:46:53;;;;;;;;;;;;;;;19.34;79.11;99339.34;7398098;19;1750;-62
2022/11/17 11:49:27;;;;;;;;;;;;;;;19.30;78.91;99335.31;7398695;19;1609;-63
2022/11/17 11:51:56;;;;;;;;;;;;;;;19.24;79.12;99341.38;7395191;19;1604;-63
2022/11/17 11:54:29;;;;;;;;;;;;;;;19.17;79.16;99340.38;7399332;19;1866;-63
2022/11/17 11:57:00;;;;;;;;;;;;;;;19.15;79.07;99339.72;7402254;19;1655;-75
2022/11/17 11:59:34;;;;;;;;;;;;;;;19.30;78.76;99346.03;7405206;19;1478;-62
2022/11/17 12:02:07;;;;;;;;;;;;;;;19.45;77.95;99348.81;7402133;19;1100;-62
2022/11/17 12:04:39;;;;;;;;;;;;;;;19.65;77.69;99355.44;7404368;19;1014;-69
2022/11/17 12:07:13;;;;;;;;;;;;;;;19.73;77.36;99348.41;7403225;19;1639;-70
2022/11/17 12:09:51;;;;;;;;;;;;;;;19.62;77.96;99368.38;7402404;19;1522;-62
2022/11/17 12:12:28;;;;;;;;;;;;;;;19.42;78.33;99357.22;7402396;19;1640;-63
2022/11/17 12:15:14;;;;;;;;;;;;;;;19.35;78.93;99359.75;7334845;19;12776;-63
2022/11/17 12:17:58;;;;;;;;;;;;;;;19.32;79.06;99354.75;7402147;19;1490;-63
2022/11/17 12:20:42;;;;;;;;;;;;;;;19.26;79.29;99368.84;7403620;19;1509;-62
2022/11/17 12:23:18;;;;;;;;;;;;;;;19.26;79.24;99361.63;7404178;19;1547;-63
2022/11/17 12:25:47;;;;;;;;;;;;;;;19.36;78.78;99341.81;7402415;19;1288;-63
2022/11/17 12:28:34;;;;;;;;;;;;;;;19.49;78.69;99366.25;7402060;19;988;-68
2022/11/17 12:31:03;;;;;;;;;;;;;;;19.56;77.75;99358.38;7401173;19;1431;-63
2022/11/17 12:33:46;;;;;;;;;;;;;;;19.56;78.07;99347.63;7402398;19;1967;-64
2022/11/17 12:36:26;;;;;;;;;;;;;;;19.54;78.13;99355.03;7401295;19;1474;-62
2022/11/17 12:38:55;;;;;;;;;;;;;;;19.39;78.52;99363.75;7400851;19;1395;-63
2022/11/17 12:41:39;;;;;;;;;;;;;;;19.39;78.58;99369.13;7400931;19;1592;-63
2022/11/17 12:44:22;;;;;;;;;;;;;;;19.34;78.44;99355.41;7399935;19;1011;-63
2022/11/17 12:46:57;;;;;;;;;;;;;;;19.32;78.75;99346.72;7401802;19;1519;-63
2022/11/17 12:49:28;;;;;;;;;;;;;;;19.34;79.60;99358.09;7403073;19;1521;-63
2022/11/17 12:51:59;;;;;;;;;;;;;;;19.34;78.57;99366.13;7400263;19;1478;-63
2022/11/17 12:54:29;;;;;;;;;;;;;;;19.50;78.08;99361.72;7401481;19;1863;-63
2022/11/17 12:57:03;;;;;;;;;;;;;;;19.58;77.44;99362.53;7403300;19;1535;-63
2022/11/17 12:59:54;;;;;;;;;;;;;;;19.61;78.09;99355.97;7402511;19;1506;-63
2022/11/17 13:02:31;;;;;;;;;;;;;;;19.44;78.68;99349.84;7402511;19;1319;-63
2022/11/17 13:05:03;;;;;;;;;;;;;;;19.32;78.95;99357.44;7409565;19;1522;-62
2022/11/17 13:07:31;;;;;;;;;;;;;;;19.30;78.86;99370.16;7409784;19;1614;-63
2022/11/17 13:10:01;;;;;;;;;;;;;;;19.24;79.05;99376.22;7409570;19;1047;-63
2022/11/17 13:12:31;;;;;;;;;;;;;;;19.21;79.13;99379.22;7407018;19;1274;-63
2022/11/17 13:15:01;;;;;;;;;;;;;;;19.19;79.16;99381.25;7404242;19;1842;-64
2022/11/17 13:17:33;;;;;;;;;;;;;;;19.15;79.18;99378.06;7409354;19;1535;-63
2022/11/17 13:20:03;;;;;;;;;;;;;;;19.16;79.38;99373.53;7407658;19;1299;-61
2022/11/17 13:22:32;;;;;;;;;;;;;;;19.34;79.00;99400.97;7407537;19;1458;-62
2022/11/17 13:25:13;;;;;;;;;;;;;;;19.41;78.89;99366.28;7408677;19;1548;-63
2022/11/17 13:27:45;;;;;;;;;;;;;;;19.45;78.80;99381.00;7407542;19;1242;-62
2022/11/17 13:30:14;;;;;;;;;;;;;;;19.42;79.72;99392.91;7407810;19;930;-62
2022/11/17 13:32:45;;;;;;;;;;;;;;;19.35;79.73;99388.41;7406833;19;1414;-62
2022/11/17 13:35:21;;;;;;;;;;;;;;;19.38;79.26;99380.88;7404383;19;1877;-62
2022/11/17 13:38:05;;;;;;;;;;;;;;;19.49;79.83;99387.69;7407164;19;1458;-62
2022/11/17 13:40:35;;;;;;;;;;;;;;;19.42;79.36;99392.91;7406132;19;1760;-63
2022/11/17 13:43:04;;;;;;;;;;;;;;;19.42;79.23;99400.13;7407758;19;1438;-62
2022/11/17 13:45:33;;;;;;;;;;;;;;;19.36;79.36;99398.97;7406985;19;1579;-63